createdAt,value
2022-10-09T00:00:27.767Z,7.63
2022-10-09T00:04:43.372Z,6.68
2022-10-09T00:08:57.587Z,7.63
2022-10-09T00:13:12.060Z,6.53
2022-10-09T00:17:25.921Z,7.22
2022-10-09T00:21:40.959Z,7.70
2022-10-09T00:25:56.122Z,7.35
2022-10-09T00:30:10.956Z,6.70
2022-10-09T00:34:24.571Z,7.05
2022-10-09T00:38:40.396Z,7.15
2022-10-09T00:42:57.375Z,6.63
2022-10-09T00:47:16.201Z,6.63
2022-10-09T00:51:32.232Z,6.78
2022-10-09T00:55:47.620Z,6.70
2022-10-09T01:00:05.168Z,7.05
2022-10-09T01:04:18.834Z,7.40
2022-10-09T01:08:38.972Z,6.68
2022-10-09T01:13:03.008Z,6.70
2022-10-09T01:17:32.365Z,6.97
2022-10-09T01:21:57.700Z,6.70
2022-10-09T01:26:22.202Z,6.70
2022-10-09T01:30:38.655Z,7.03
2022-10-09T01:34:54.440Z,7.70
2022-10-09T01:39:12.340Z,8.50
2022-10-09T01:43:26.122Z,8.38
2022-10-09T01:47:41.456Z,8.50
2022-10-09T01:52:00.292Z,8.15
2022-10-09T01:56:19.070Z,8.23
2022-10-09T02:00:37.603Z,7.13
2022-10-09T02:04:53.305Z,6.82
2022-10-09T02:09:12.466Z,7.23
2022-10-09T02:13:26.301Z,6.65
2022-10-09T02:17:46.636Z,7.05
2022-10-09T02:22:09.219Z,7.30
2022-10-09T02:26:23.335Z,7.25
2022-10-09T02:30:45.221Z,7.68
2022-10-09T02:34:58.889Z,7.93
2022-10-09T02:39:14.019Z,7.47
2022-10-09T02:43:27.790Z,7.78
2022-10-09T02:47:41.530Z,7.43
2022-10-09T02:51:55.215Z,7.97
2022-10-09T02:56:10.287Z,7.82
2022-10-09T03:00:23.991Z,7.75
2022-10-09T03:04:37.710Z,8.20
2022-10-09T03:08:53.309Z,8.63
2022-10-09T03:13:08.851Z,8.57
2022-10-09T03:17:22.550Z,8.63
2022-10-09T03:21:36.362Z,8.73
2022-10-09T03:25:57.120Z,8.13
2022-10-09T03:30:13.203Z,9.00
2022-10-09T03:34:26.890Z,8.60
2022-10-09T03:38:40.890Z,8.27
2022-10-09T03:42:54.540Z,8.57
2022-10-09T03:47:09.839Z,8.80
2022-10-09T03:51:23.574Z,9.07
2022-10-09T03:55:37.420Z,9.07
2022-10-09T03:59:51.197Z,8.38
2022-10-09T04:04:06.172Z,8.17
2022-10-09T04:08:19.853Z,8.48
2022-10-09T04:12:33.514Z,8.77
2022-10-09T04:16:47.269Z,7.80
2022-10-09T04:21:02.391Z,7.18
2022-10-09T04:25:16.204Z,8.38
2022-10-09T04:29:29.903Z,7.80
2022-10-09T04:33:43.507Z,8.65
2022-10-09T04:37:58.492Z,7.95
2022-10-09T04:42:12.093Z,8.20
2022-10-09T04:46:25.879Z,8.20
2022-10-09T04:50:40.385Z,8.43
2022-10-09T04:54:55.880Z,9.35
2022-10-09T04:59:09.569Z,8.90
2022-10-09T05:03:23.237Z,9.63
2022-10-09T05:07:36.836Z,8.98
2022-10-09T05:11:51.892Z,9.37
2022-10-09T05:16:08.080Z,8.73
2022-10-09T05:20:21.810Z,8.75
2022-10-09T05:24:35.502Z,8.55
2022-10-09T05:28:51.216Z,8.27
2022-10-09T05:33:04.929Z,9.00
2022-10-09T05:37:18.557Z,8.00
2022-10-09T05:41:32.157Z,8.20
2022-10-09T05:45:48.442Z,7.68
2022-10-09T05:50:02.241Z,8.20
2022-10-09T05:54:17.979Z,6.73
2022-10-09T05:58:31.666Z,9.43
2022-10-09T06:02:46.974Z,6.50
2022-10-09T06:07:00.915Z,7.78
2022-10-09T06:11:16.363Z,8.13
2022-10-09T06:15:30.673Z,7.75
2022-10-09T06:19:45.804Z,8.65
2022-10-09T06:24:02.050Z,9.13
2022-10-09T06:28:16.140Z,8.43
2022-10-09T06:32:30.119Z,9.27
2022-10-09T06:36:45.126Z,9.83
2022-10-09T06:41:03.776Z,8.80
2022-10-09T06:45:18.763Z,7.72
2022-10-09T06:49:32.405Z,7.13
2022-10-09T06:53:49.420Z,6.10
2022-10-09T06:58:03.175Z,5.88
2022-10-09T07:02:17.378Z,5.32
2022-10-09T07:06:33.075Z,6.00
2022-10-09T07:10:48.277Z,5.53
2022-10-09T07:15:02.099Z,5.20
2022-10-09T07:19:17.626Z,5.40
2022-10-09T07:23:32.411Z,5.32
2022-10-09T07:27:47.558Z,5.75
2022-10-09T07:32:03.949Z,5.50
2022-10-09T07:36:19.840Z,5.53
2022-10-09T07:40:35.231Z,5.68
2022-10-09T07:44:53.366Z,5.80
2022-10-09T07:49:07.386Z,6.13
2022-10-09T07:53:21.224Z,5.10
2022-10-09T07:57:35.284Z,5.72
2022-10-09T08:01:50.420Z,5.50
2022-10-09T08:06:05.131Z,5.07
2022-10-09T08:10:18.942Z,5.30
2022-10-09T08:14:32.734Z,4.55
2022-10-09T08:18:48.268Z,5.30
2022-10-09T08:23:02.080Z,5.40
2022-10-09T08:27:15.787Z,5.22
2022-10-09T08:31:30.291Z,4.37
2022-10-09T08:35:45.373Z,4.30
2022-10-09T08:39:59.032Z,4.30
2022-10-09T08:44:16.366Z,4.33
2022-10-09T08:48:32.152Z,4.55
2022-10-09T08:52:56.988Z,4.38
2022-10-09T08:57:14.035Z,3.60
2022-10-09T09:01:36.621Z,3.40
2022-10-09T09:05:54.538Z,3.70
2022-10-09T09:10:18.142Z,3.65
2022-10-09T09:14:43.520Z,3.07
2022-10-09T09:19:16.988Z,3.88
2022-10-09T09:23:35.276Z,4.15
2022-10-09T09:27:52.506Z,3.80
2022-10-09T09:32:10.157Z,4.10
2022-10-09T09:36:26.389Z,3.40
2022-10-09T09:40:44.370Z,3.72
2022-10-09T09:45:06.109Z,2.63
2022-10-09T09:49:21.300Z,3.10
2022-10-09T09:53:37.780Z,3.13
2022-10-09T09:57:51.846Z,3.00
2022-10-09T10:02:14.544Z,3.22
2022-10-09T10:06:31.892Z,3.35
2022-10-09T10:10:48.951Z,2.93
2022-10-09T10:15:02.917Z,2.38
2022-10-09T10:19:26.111Z,3.15
2022-10-09T10:23:43.029Z,2.60
2022-10-09T10:28:02.936Z,2.23
2022-10-09T10:32:22.167Z,2.55
2022-10-09T10:36:37.748Z,2.20
2022-10-09T10:40:57.949Z,2.33
2022-10-09T10:45:19.045Z,2.28
2022-10-09T10:49:34.065Z,2.33
2022-10-09T10:54:05.162Z,2.90
2022-10-09T10:58:26.875Z,2.13
2022-10-09T11:03:16.306Z,2.35
2022-10-09T11:07:37.838Z,1.98
2022-10-09T11:12:00.587Z,1.97
2022-10-09T11:16:28.239Z,2.40
2022-10-09T11:21:17.866Z,1.70
2022-10-09T11:25:36.654Z,1.90
2022-10-09T11:29:55.412Z,2.00
2022-10-09T11:34:15.761Z,2.20
2022-10-09T11:38:36.651Z,2.10
2022-10-09T11:42:59.832Z,2.60
2022-10-09T11:47:22.688Z,2.42
2022-10-09T11:51:45.927Z,2.03
2022-10-09T11:56:04.633Z,2.20
2022-10-09T12:00:29.269Z,2.17
2022-10-09T12:04:54.440Z,1.63
2022-10-09T12:09:09.832Z,1.70
2022-10-09T12:13:41.710Z,1.38
2022-10-09T12:17:55.465Z,1.50
2022-10-09T12:22:16.778Z,1.60
2022-10-09T12:26:31.308Z,1.50
2022-10-09T12:30:49.803Z,1.48
2022-10-09T12:35:22.576Z,1.40
2022-10-09T12:39:37.762Z,1.70
2022-10-09T12:43:53.730Z,1.75
2022-10-09T12:48:12.007Z,1.60
2022-10-09T12:52:25.717Z,1.77
2022-10-09T12:56:41.039Z,1.33
2022-10-09T13:00:58.340Z,1.42
2022-10-09T13:05:12.575Z,1.83
2022-10-09T13:09:30.569Z,1.70
2022-10-09T13:13:50.844Z,1.00
2022-10-09T13:18:20.782Z,2.25
2022-10-09T13:22:36.019Z,1.40
2022-10-09T13:26:49.831Z,2.00
2022-10-09T13:31:09.036Z,1.98
2022-10-09T13:35:23.321Z,1.40
2022-10-09T13:39:36.923Z,1.65
2022-10-09T13:43:52.416Z,1.70
2022-10-09T13:48:07.614Z,1.87
2022-10-09T13:52:21.637Z,1.55
2022-10-09T13:56:35.684Z,1.60
2022-10-09T14:00:53.134Z,1.17
2022-10-09T14:05:09.242Z,1.40
2022-10-09T14:09:23.774Z,1.40
2022-10-09T14:13:37.389Z,1.48
2022-10-09T14:17:51.374Z,1.10
2022-10-09T14:22:07.443Z,1.48
2022-10-09T14:26:21.194Z,1.27
2022-10-09T14:30:35.142Z,1.70
2022-10-09T14:34:48.945Z,1.40
2022-10-09T14:39:05.519Z,1.55
2022-10-09T14:43:20.113Z,1.33
2022-10-09T14:47:33.937Z,1.30
2022-10-09T14:51:47.665Z,1.30
2022-10-09T14:56:03.949Z,1.60
2022-10-09T15:00:18.121Z,1.50
2022-10-09T15:04:32.259Z,1.38
2022-10-09T15:08:46.415Z,1.50
2022-10-09T15:13:01.518Z,1.60
2022-10-09T15:17:15.586Z,1.65
2022-10-09T15:21:30.898Z,1.35
2022-10-09T15:25:49.729Z,1.25
2022-10-09T15:30:06.313Z,1.40
2022-10-09T15:34:20.987Z,1.40
2022-10-09T15:38:34.673Z,1.20
2022-10-09T15:42:48.620Z,1.67
2022-10-09T15:47:03.935Z,1.60
2022-10-09T15:51:18.499Z,1.50
2022-10-09T15:55:32.161Z,1.20
2022-10-09T15:59:45.754Z,1.60
2022-10-09T16:04:00.943Z,1.70
2022-10-09T16:08:14.984Z,1.92
2022-10-09T16:12:28.801Z,1.60
2022-10-09T16:16:42.761Z,1.45
2022-10-09T16:20:58.022Z,1.65
2022-10-09T16:25:11.825Z,1.73
2022-10-09T16:29:25.525Z,1.80
2022-10-09T16:33:39.184Z,1.67
2022-10-09T16:37:54.232Z,1.97
2022-10-09T16:42:07.916Z,1.70
2022-10-09T16:46:23.463Z,1.80
2022-10-09T16:50:41.271Z,1.83
2022-10-09T16:54:59.622Z,1.80
2022-10-09T16:59:14.574Z,2.35
2022-10-09T17:03:28.782Z,2.22
2022-10-09T17:07:42.534Z,1.93
2022-10-09T17:11:58.185Z,2.05
2022-10-09T17:16:18.000Z,2.10
2022-10-09T17:20:32.198Z,2.20
2022-10-09T17:24:45.944Z,1.73
2022-10-09T17:29:01.815Z,2.03
2022-10-09T17:33:19.610Z,2.22
2022-10-09T17:37:33.747Z,2.00
2022-10-09T17:41:49.370Z,2.00
2022-10-09T17:46:04.994Z,2.45
2022-10-09T17:50:18.982Z,2.80
2022-10-09T17:54:32.654Z,2.25
2022-10-09T17:58:47.518Z,2.25
2022-10-09T18:03:02.469Z,2.10
2022-10-09T18:07:19.438Z,2.47
2022-10-09T18:11:33.327Z,2.03
2022-10-09T18:15:47.081Z,2.47
2022-10-09T18:20:02.082Z,3.83
2022-10-09T18:24:16.803Z,2.30
2022-10-09T18:28:30.545Z,1.90
2022-10-09T18:32:44.207Z,1.80
2022-10-09T18:36:59.343Z,2.03
2022-10-09T18:41:13.256Z,2.00
2022-10-09T18:45:27.518Z,1.73
2022-10-09T18:49:44.688Z,2.58
2022-10-09T18:54:03.956Z,2.55
2022-10-09T18:58:17.834Z,2.60
2022-10-09T19:02:31.889Z,3.30
2022-10-09T19:06:46.093Z,2.88
2022-10-09T19:11:01.367Z,2.70
2022-10-09T19:15:15.171Z,2.70
2022-10-09T19:19:29.771Z,3.13
2022-10-09T19:23:43.960Z,3.08
2022-10-09T19:27:59.171Z,4.50
2022-10-09T19:32:13.355Z,4.78
2022-10-09T19:36:28.243Z,3.70
2022-10-09T19:40:42.002Z,3.40
2022-10-09T19:44:57.006Z,3.40
2022-10-09T19:49:10.840Z,3.25
2022-10-09T19:53:27.251Z,3.17
2022-10-09T19:57:40.981Z,3.70
2022-10-09T20:01:57.705Z,3.33
2022-10-09T20:06:12.507Z,3.40
2022-10-09T20:10:27.715Z,3.50
2022-10-09T20:14:41.541Z,3.03
2022-10-09T20:18:57.321Z,3.47
2022-10-09T20:23:11.009Z,3.70
2022-10-09T20:27:24.904Z,3.57
2022-10-09T20:31:38.689Z,3.60
2022-10-09T20:35:53.939Z,3.45
2022-10-09T20:40:08.209Z,3.70
2022-10-09T20:44:21.887Z,3.40
2022-10-09T20:48:35.687Z,3.65
2022-10-09T20:52:50.838Z,3.27
2022-10-09T20:57:04.821Z,3.55
2022-10-09T21:01:18.662Z,3.80
2022-10-09T21:05:32.659Z,3.83
2022-10-09T21:09:48.282Z,3.40
2022-10-09T21:14:02.403Z,3.70
2022-10-09T21:18:18.138Z,3.50
2022-10-09T21:22:32.731Z,3.10
2022-10-09T21:26:47.766Z,3.00
2022-10-09T21:31:01.403Z,3.10
2022-10-09T21:35:15.029Z,3.47
2022-10-09T21:39:28.812Z,3.13
2022-10-09T21:43:44.018Z,3.13
2022-10-09T21:47:57.743Z,3.40
2022-10-09T21:52:11.980Z,3.03
2022-10-09T21:56:25.673Z,3.25
2022-10-09T22:00:40.690Z,3.75
2022-10-09T22:04:57.208Z,3.20
2022-10-09T22:09:10.983Z,3.60
2022-10-09T22:13:24.723Z,3.85
2022-10-09T22:17:39.847Z,3.20
2022-10-09T22:21:53.502Z,3.08
2022-10-09T22:26:09.760Z,3.30
2022-10-09T22:30:23.363Z,3.80
2022-10-09T22:34:38.558Z,3.27
2022-10-09T22:38:54.756Z,3.58
2022-10-09T22:43:09.345Z,3.67
2022-10-09T22:47:23.270Z,3.40
2022-10-09T22:51:38.232Z,3.50
2022-10-09T22:55:51.836Z,3.80
2022-10-09T23:00:06.874Z,4.00
2022-10-09T23:04:21.999Z,3.47
2022-10-09T23:08:38.634Z,3.75
2022-10-09T23:12:52.596Z,3.33
2022-10-09T23:17:06.400Z,3.80
2022-10-09T23:21:22.360Z,4.03
2022-10-09T23:25:41.202Z,3.50
2022-10-09T23:29:54.901Z,3.70
2022-10-09T23:34:08.843Z,3.88
2022-10-09T23:38:22.573Z,3.97
2022-10-09T23:42:37.771Z,3.37
2022-10-09T23:46:52.595Z,4.00
2022-10-09T23:51:06.830Z,3.45
2022-10-09T23:55:20.619Z,3.47
2022-10-09T23:59:35.753Z,3.73
